sensor_id;sensor_type;location;lat;lon;timestamp;pressure;altitude;pressure_sealevel;temperature;humidity
27729;BME280;15126;42.186;24.340;2022-08-19T00:02:26;98773.06;;;26.18;51.49
27729;BME280;15126;42.186;24.340;2022-08-19T00:04:53;98774.59;;;26.19;51.48
27729;BME280;15126;42.186;24.340;2022-08-19T00:07:20;98755.47;;;26.00;52.00
27729;BME280;15126;42.186;24.340;2022-08-19T00:09:47;98769.31;;;26.10;52.01
27729;BME280;15126;42.186;24.340;2022-08-19T00:12:13;98759.53;;;26.05;51.21
27729;BME280;15126;42.186;24.340;2022-08-19T00:14:42;98767.13;;;26.02;51.22
27729;BME280;15126;42.186;24.340;2022-08-19T00:17:08;98772.72;;;25.95;50.91
27729;BME280;15126;42.186;24.340;2022-08-19T00:19:36;98756.78;;;25.99;51.58
27729;BME280;15126;42.186;24.340;2022-08-19T00:22:03;98754.78;;;26.08;51.12
27729;BME280;15126;42.186;24.340;2022-08-19T00:24:31;98756.75;;;26.13;51.02
27729;BME280;15126;42.186;24.340;2022-08-19T00:26:58;98744.66;;;26.07;50.81
27729;BME280;15126;42.186;24.340;2022-08-19T00:29:27;98755.91;;;26.18;50.80
27729;BME280;15126;42.186;24.340;2022-08-19T00:31:55;98758.09;;;26.12;52.51
27729;BME280;15126;42.186;24.340;2022-08-19T00:34:23;98755.56;;;26.08;50.85
27729;BME280;15126;42.186;24.340;2022-08-19T00:36:51;98769.53;;;26.12;52.24
27729;BME280;15126;42.186;24.340;2022-08-19T00:39:18;98769.00;;;26.13;52.37
27729;BME280;15126;42.186;24.340;2022-08-19T00:41:47;98760.72;;;26.10;52.14
27729;BME280;15126;42.186;24.340;2022-08-19T00:44:17;98757.44;;;26.06;52.42
27729;BME280;15126;42.186;24.340;2022-08-19T00:46:46;98756.22;;;26.01;52.92
27729;BME280;15126;42.186;24.340;2022-08-19T00:49:24;98755.69;;;26.02;53.47
27729;BME280;15126;42.186;24.340;2022-08-19T00:51:55;98752.38;;;25.98;53.12
27729;BME280;15126;42.186;24.340;2022-08-19T00:54:24;98747.75;;;25.95;54.30
27729;BME280;15126;42.186;24.340;2022-08-19T00:56:52;98758.75;;;25.91;54.70
27729;BME280;15126;42.186;24.340;2022-08-19T00:59:19;98750.31;;;25.86;54.95
27729;BME280;15126;42.186;24.340;2022-08-19T01:01:47;98759.19;;;25.82;56.51
27729;BME280;15126;42.186;24.340;2022-08-19T01:04:16;98756.22;;;25.75;56.28
27729;BME280;15126;42.186;24.340;2022-08-19T01:06:42;98756.34;;;25.69;56.62
27729;BME280;15126;42.186;24.340;2022-08-19T01:09:10;98756.22;;;25.62;55.86
27729;BME280;15126;42.186;24.340;2022-08-19T01:11:39;98765.88;;;25.59;57.17
27729;BME280;15126;42.186;24.340;2022-08-19T01:14:08;98763.69;;;25.52;57.29
27729;BME280;15126;42.186;24.340;2022-08-19T01:16:36;98757.38;;;25.40;53.78
27729;BME280;15126;42.186;24.340;2022-08-19T01:19:10;98756.06;;;25.41;54.54
27729;BME280;15126;42.186;24.340;2022-08-19T01:21:44;98764.16;;;25.37;56.17
27729;BME280;15126;42.186;24.340;2022-08-19T01:24:15;98760.31;;;25.34;55.72
27729;BME280;15126;42.186;24.340;2022-08-19T01:26:43;98761.41;;;25.31;56.67
27729;BME280;15126;42.186;24.340;2022-08-19T01:29:10;98775.25;;;25.27;57.42
27729;BME280;15126;42.186;24.340;2022-08-19T01:31:38;98776.34;;;25.24;56.90
27729;BME280;15126;42.186;24.340;2022-08-19T01:34:06;98777.44;;;25.21;57.27
27729;BME280;15126;42.186;24.340;2022-08-19T01:36:35;98776.19;;;25.17;57.71
27729;BME280;15126;42.186;24.340;2022-08-19T01:39:07;98778.81;;;25.15;57.89
27729;BME280;15126;42.186;24.340;2022-08-19T01:41:35;98778.91;;;25.09;57.75
27729;BME280;15126;42.186;24.340;2022-08-19T01:44:03;98774.06;;;25.04;57.78
27729;BME280;15126;42.186;24.340;2022-08-19T01:46:30;98774.94;;;24.99;57.67
27729;BME280;15126;42.186;24.340;2022-08-19T01:48:57;98763.56;;;24.80;57.05
27729;BME280;15126;42.186;24.340;2022-08-19T01:51:25;98766.91;;;24.60;53.36
27729;BME280;15126;42.186;24.340;2022-08-19T01:53:52;98784.50;;;24.64;52.74
27729;BME280;15126;42.186;24.340;2022-08-19T01:56:20;98754.06;;;24.54;52.76
27729;BME280;15126;42.186;24.340;2022-08-19T01:58:50;98769.63;;;24.71;53.55
27729;BME280;15126;42.186;24.340;2022-08-19T02:01:20;98767.25;;;24.75;52.93
27729;BME280;15126;42.186;24.340;2022-08-19T02:03:46;98763.81;;;24.77;53.27
27729;BME280;15126;42.186;24.340;2022-08-19T02:06:14;98776.25;;;24.79;51.96
27729;BME280;15126;42.186;24.340;2022-08-19T02:08:42;98780.41;;;24.97;52.67
27729;BME280;15126;42.186;24.340;2022-08-19T02:11:19;98777.78;;;24.99;52.54
27729;BME280;15126;42.186;24.340;2022-08-19T02:13:46;98792.19;;;25.07;52.74
27729;BME280;15126;42.186;24.340;2022-08-19T02:16:16;98783.44;;;25.18;53.39
27729;BME280;15126;42.186;24.340;2022-08-19T02:18:43;98787.69;;;25.11;53.05
27729;BME280;15126;42.186;24.340;2022-08-19T02:21:10;98789.63;;;25.22;52.87
27729;BME280;15126;42.186;24.340;2022-08-19T02:23:38;98791.38;;;25.25;53.03
27729;BME280;15126;42.186;24.340;2022-08-19T02:26:05;98790.28;;;25.28;54.16
27729;BME280;15126;42.186;24.340;2022-08-19T02:28:32;98801.94;;;25.30;54.13
27729;BME280;15126;42.186;24.340;2022-08-19T02:30:59;98805.88;;;25.27;53.87
27729;BME280;15126;42.186;24.340;2022-08-19T02:33:29;98803.56;;;25.25;54.74
27729;BME280;15126;42.186;24.340;2022-08-19T02:35:56;98812.59;;;25.29;55.39
27729;BME280;15126;42.186;24.340;2022-08-19T02:38:23;98805.41;;;25.23;54.68
27729;BME280;15126;42.186;24.340;2022-08-19T02:40:54;98808.28;;;25.23;55.56
27729;BME280;15126;42.186;24.340;2022-08-19T02:43:21;98794.66;;;25.16;54.57
27729;BME280;15126;42.186;24.340;2022-08-19T02:45:49;98799.03;;;25.17;55.26
27729;BME280;15126;42.186;24.340;2022-08-19T02:48:17;98792.19;;;25.07;55.94
27729;BME280;15126;42.186;24.340;2022-08-19T02:50:46;98787.91;;;25.00;56.47
27729;BME280;15126;42.186;24.340;2022-08-19T02:53:13;98805.84;;;24.95;55.38
27729;BME280;15126;42.186;24.340;2022-08-19T02:55:44;98806.72;;;24.90;56.11
27729;BME280;15126;42.186;24.340;2022-08-19T02:58:13;98809.66;;;24.84;56.09
27729;BME280;15126;42.186;24.340;2022-08-19T03:00:45;98789.88;;;24.68;56.92
27729;BME280;15126;42.186;24.340;2022-08-19T03:03:12;98814.66;;;24.78;57.51
27729;BME280;15126;42.186;24.340;2022-08-19T03:05:39;98814.25;;;24.69;57.66
27729;BME280;15126;42.186;24.340;2022-08-19T03:08:10;98823.66;;;24.45;56.55
27729;BME280;15126;42.186;24.340;2022-08-19T03:10:42;98810.75;;;24.20;57.47
27729;BME280;15126;42.186;24.340;2022-08-19T03:13:11;98829.78;;;24.31;58.19
27729;BME280;15126;42.186;24.340;2022-08-19T03:15:40;98817.00;;;24.18;58.33
27729;BME280;15126;42.186;24.340;2022-08-19T03:18:07;98825.94;;;24.28;60.07
27729;BME280;15126;42.186;24.340;2022-08-19T03:20:40;98837.63;;;24.24;59.47
27729;BME280;15126;42.186;24.340;2022-08-19T03:23:09;98843.59;;;24.26;59.85
27729;BME280;15126;42.186;24.340;2022-08-19T03:25:38;98837.00;;;24.13;59.37
27729;BME280;15126;42.186;24.340;2022-08-19T03:28:09;98843.50;;;24.08;59.71
27729;BME280;15126;42.186;24.340;2022-08-19T03:30:37;98841.41;;;24.08;59.82
27729;BME280;15126;42.186;24.340;2022-08-19T03:33:06;98862.88;;;24.15;60.06
27729;BME280;15126;42.186;24.340;2022-08-19T03:35:33;98870.94;;;24.11;59.43
27729;BME280;15126;42.186;24.340;2022-08-19T03:38:02;98857.28;;;24.04;59.39
27729;BME280;15126;42.186;24.340;2022-08-19T03:40:30;98847.22;;;23.97;60.57
27729;BME280;15126;42.186;24.340;2022-08-19T03:42:57;98865.59;;;24.02;60.25
27729;BME280;15126;42.186;24.340;2022-08-19T03:45:24;98855.78;;;23.97;59.97
27729;BME280;15126;42.186;24.340;2022-08-19T03:47:51;98865.09;;;23.98;60.40
27729;BME280;15126;42.186;24.340;2022-08-19T03:50:18;98850.44;;;23.88;62.04
27729;BME280;15126;42.186;24.340;2022-08-19T03:52:48;98868.50;;;23.96;60.56
27729;BME280;15126;42.186;24.340;2022-08-19T03:55:15;98871.88;;;23.95;61.55
27729;BME280;15126;42.186;24.340;2022-08-19T03:57:44;98876.03;;;23.94;61.79
27729;BME280;15126;42.186;24.340;2022-08-19T04:00:15;98874.47;;;23.93;61.58
27729;BME280;15126;42.186;24.340;2022-08-19T04:02:42;98875.53;;;23.90;62.04
27729;BME280;15126;42.186;24.340;2022-08-19T04:05:09;98865.03;;;23.79;62.60
27729;BME280;15126;42.186;24.340;2022-08-19T04:07:36;98878.41;;;23.90;62.84
27729;BME280;15126;42.186;24.340;2022-08-19T04:10:03;98841.28;;;23.71;62.94
27729;BME280;15126;42.186;24.340;2022-08-19T04:12:31;98863.69;;;23.86;63.99
27729;BME280;15126;42.186;24.340;2022-08-19T04:14:59;98879.66;;;23.94;64.25
27729;BME280;15126;42.186;24.340;2022-08-19T04:17:26;98886.09;;;23.95;63.20
27729;BME280;15126;42.186;24.340;2022-08-19T04:19:53;98876.81;;;23.94;63.26
27729;BME280;15126;42.186;24.340;2022-08-19T04:22:20;98888.66;;;23.98;63.32
27729;BME280;15126;42.186;24.340;2022-08-19T04:24:46;98883.25;;;23.95;64.25
27729;BME280;15126;42.186;24.340;2022-08-19T04:27:13;98890.41;;;24.07;63.75
27729;BME280;15126;42.186;24.340;2022-08-19T04:29:41;98893.22;;;24.12;64.26
27729;BME280;15126;42.186;24.340;2022-08-19T04:32:10;98895.66;;;24.27;64.31
27729;BME280;15126;42.186;24.340;2022-08-19T04:34:37;98880.06;;;24.52;63.22
27729;BME280;15126;42.186;24.340;2022-08-19T04:37:05;98895.94;;;24.91;63.20
27729;BME280;15126;42.186;24.340;2022-08-19T04:39:38;98889.97;;;25.26;64.00
27729;BME280;15126;42.186;24.340;2022-08-19T04:42:23;98897.00;;;25.75;62.98
27729;BME280;15126;42.186;24.340;2022-08-19T04:45:10;98892.72;;;26.14;61.00
27729;BME280;15126;42.186;24.340;2022-08-19T04:47:40;98896.25;;;26.46;57.34
27729;BME280;15126;42.186;24.340;2022-08-19T04:50:08;98893.91;;;26.71;56.31
27729;BME280;15126;42.186;24.340;2022-08-19T04:52:37;98887.44;;;26.83;55.48
27729;BME280;15126;42.186;24.340;2022-08-19T04:55:05;98888.38;;;26.99;53.79
27729;BME280;15126;42.186;24.340;2022-08-19T04:57:32;98892.25;;;27.01;52.54
27729;BME280;15126;42.186;24.340;2022-08-19T04:59:59;98896.19;;;27.11;53.53
27729;BME280;15126;42.186;24.340;2022-08-19T05:02:26;98889.56;;;27.16;53.39
27729;BME280;15126;42.186;24.340;2022-08-19T05:04:58;98895.03;;;27.28;54.52
27729;BME280;15126;42.186;24.340;2022-08-19T05:07:26;98901.81;;;27.38;55.15
27729;BME280;15126;42.186;24.340;2022-08-19T05:09:53;98897.53;;;27.44;54.19
27729;BME280;15126;42.186;24.340;2022-08-19T05:12:21;98887.25;;;27.49;53.98
27729;BME280;15126;42.186;24.340;2022-08-19T05:14:48;98898.66;;;27.62;53.07
27729;BME280;15126;42.186;24.340;2022-08-19T05:17:15;98905.22;;;27.70;49.47
27729;BME280;15126;42.186;24.340;2022-08-19T05:19:42;98902.28;;;27.83;53.66
27729;BME280;15126;42.186;24.340;2022-08-19T05:22:28;98901.59;;;27.90;50.74
27729;BME280;15126;42.186;24.340;2022-08-19T05:25:07;98899.75;;;28.00;51.23
27729;BME280;15126;42.186;24.340;2022-08-19T05:27:34;98908.72;;;28.17;51.61
27729;BME280;15126;42.186;24.340;2022-08-19T05:30:01;98914.88;;;28.21;51.63
27729;BME280;15126;42.186;24.340;2022-08-19T05:32:28;98913.03;;;28.31;51.62
27729;BME280;15126;42.186;24.340;2022-08-19T05:34:55;98912.75;;;28.43;49.25
27729;BME280;15126;42.186;24.340;2022-08-19T05:37:22;98920.53;;;28.63;47.76
27729;BME280;15126;42.186;24.340;2022-08-19T05:39:53;98919.28;;;28.79;47.99
27729;BME280;15126;42.186;24.340;2022-08-19T05:42:21;98917.78;;;28.85;48.63
27729;BME280;15126;42.186;24.340;2022-08-19T05:44:48;98923.97;;;28.97;48.73
27729;BME280;15126;42.186;24.340;2022-08-19T05:47:16;98919.00;;;28.98;46.17
27729;BME280;15126;42.186;24.340;2022-08-19T05:49:44;98926.91;;;29.12;47.84
27729;BME280;15126;42.186;24.340;2022-08-19T05:52:13;98917.22;;;29.30;44.18
27729;BME280;15126;42.186;24.340;2022-08-19T05:54:41;98916.09;;;29.41;47.39
27729;BME280;15126;42.186;24.340;2022-08-19T05:57:09;98917.63;;;29.34;44.00
27729;BME280;15126;42.186;24.340;2022-08-19T05:59:36;98923.22;;;29.55;46.95
27729;BME280;15126;42.186;24.340;2022-08-19T06:02:04;98931.69;;;29.61;46.14
27729;BME280;15126;42.186;24.340;2022-08-19T06:04:32;98936.88;;;29.70;45.57
27729;BME280;15126;42.186;24.340;2022-08-19T06:06:59;98911.78;;;29.70;45.71
27729;BME280;15126;42.186;24.340;2022-08-19T06:09:26;98930.63;;;29.94;45.84
27729;BME280;15126;42.186;24.340;2022-08-19T06:11:55;98928.88;;;30.06;45.60
27729;BME280;15126;42.186;24.340;2022-08-19T06:14:28;98923.13;;;30.21;44.88
27729;BME280;15126;42.186;24.340;2022-08-19T06:16:55;98932.53;;;30.37;46.93
27729;BME280;15126;42.186;24.340;2022-08-19T06:19:22;98935.63;;;30.46;44.42
27729;BME280;15126;42.186;24.340;2022-08-19T06:21:51;98933.50;;;30.17;45.17
27729;BME280;15126;42.186;24.340;2022-08-19T06:24:21;98930.44;;;30.22;45.34
27729;BME280;15126;42.186;24.340;2022-08-19T06:26:50;98929.28;;;30.48;46.54
27729;BME280;15126;42.186;24.340;2022-08-19T06:29:19;98933.84;;;30.58;45.47
27729;BME280;15126;42.186;24.340;2022-08-19T06:31:51;98912.94;;;30.50;46.78
27729;BME280;15126;42.186;24.340;2022-08-19T06:34:18;98938.41;;;30.77;47.36
27729;BME280;15126;42.186;24.340;2022-08-19T06:36:48;98929.56;;;30.82;45.25
27729;BME280;15126;42.186;24.340;2022-08-19T06:39:18;98926.31;;;30.86;43.98
27729;BME280;15126;42.186;24.340;2022-08-19T06:41:47;98941.06;;;31.05;45.18
27729;BME280;15126;42.186;24.340;2022-08-19T06:44:14;98927.97;;;31.11;45.47
27729;BME280;15126;42.186;24.340;2022-08-19T06:46:42;98925.66;;;31.10;42.89
27729;BME280;15126;42.186;24.340;2022-08-19T06:49:10;98929.63;;;31.30;42.35
27729;BME280;15126;42.186;24.340;2022-08-19T06:51:45;98918.41;;;31.41;43.71
27729;BME280;15126;42.186;24.340;2022-08-19T06:54:14;98924.25;;;31.26;42.07
27729;BME280;15126;42.186;24.340;2022-08-19T06:56:44;98920.72;;;31.03;41.57
27729;BME280;15126;42.186;24.340;2022-08-19T06:59:14;98931.72;;;31.29;43.19
27729;BME280;15126;42.186;24.340;2022-08-19T07:01:43;98925.09;;;31.51;44.62
27729;BME280;15126;42.186;24.340;2022-08-19T07:04:14;98930.53;;;31.47;44.90
27729;BME280;15126;42.186;24.340;2022-08-19T07:06:42;98933.44;;;31.72;45.66
27729;BME280;15126;42.186;24.340;2022-08-19T07:09:11;98921.66;;;31.77;44.05
27729;BME280;15126;42.186;24.340;2022-08-19T07:11:38;98926.47;;;31.83;40.91
27729;BME280;15126;42.186;24.340;2022-08-19T07:14:05;98915.44;;;31.89;44.96
27729;BME280;15126;42.186;24.340;2022-08-19T07:16:32;98914.63;;;31.96;39.98
27729;BME280;15126;42.186;24.340;2022-08-19T07:18:59;98914.75;;;32.05;40.34
27729;BME280;15126;42.186;24.340;2022-08-19T07:21:28;98910.63;;;32.16;41.04
27729;BME280;15126;42.186;24.340;2022-08-19T07:23:56;98910.66;;;32.33;42.23
27729;BME280;15126;42.186;24.340;2022-08-19T07:26:26;98909.00;;;32.47;42.18
27729;BME280;15126;42.186;24.340;2022-08-19T07:28:54;98904.94;;;32.67;42.49
27729;BME280;15126;42.186;24.340;2022-08-19T07:31:23;98890.25;;;32.73;39.61
27729;BME280;15126;42.186;24.340;2022-08-19T07:33:51;98901.38;;;32.93;36.99
27729;BME280;15126;42.186;24.340;2022-08-19T07:36:23;98902.56;;;33.08;39.60
27729;BME280;15126;42.186;24.340;2022-08-19T07:38:52;98898.13;;;33.24;40.31
27729;BME280;15126;42.186;24.340;2022-08-19T07:41:22;98899.81;;;33.27;42.13
27729;BME280;15126;42.186;24.340;2022-08-19T07:43:49;98897.75;;;33.37;38.84
27729;BME280;15126;42.186;24.340;2022-08-19T07:46:17;98899.28;;;33.38;39.86
27729;BME280;15126;42.186;24.340;2022-08-19T07:48:46;98905.72;;;33.46;38.95
27729;BME280;15126;42.186;24.340;2022-08-19T07:51:15;98895.16;;;33.58;40.39
27729;BME280;15126;42.186;24.340;2022-08-19T07:53:43;98899.03;;;33.70;39.76
27729;BME280;15126;42.186;24.340;2022-08-19T07:56:12;98890.41;;;33.80;38.27
27729;BME280;15126;42.186;24.340;2022-08-19T07:58:42;98902.63;;;33.88;39.70
27729;BME280;15126;42.186;24.340;2022-08-19T08:01:12;98905.16;;;33.84;36.65
27729;BME280;15126;42.186;24.340;2022-08-19T08:03:39;98906.00;;;33.94;38.30
27729;BME280;15126;42.186;24.340;2022-08-19T08:06:29;98898.88;;;34.04;36.18
27729;BME280;15126;42.186;24.340;2022-08-19T08:09:15;98897.13;;;34.19;38.10
27729;BME280;15126;42.186;24.340;2022-08-19T08:11:50;98890.41;;;34.26;38.02
27729;BME280;15126;42.186;24.340;2022-08-19T08:14:20;98899.56;;;34.22;39.05
27729;BME280;15126;42.186;24.340;2022-08-19T08:16:48;98895.19;;;34.40;40.12
27729;BME280;15126;42.186;24.340;2022-08-19T08:19:15;98882.09;;;34.49;39.20
27729;BME280;15126;42.186;24.340;2022-08-19T08:21:42;98889.59;;;34.61;38.56
27729;BME280;15126;42.186;24.340;2022-08-19T08:24:09;98895.88;;;34.67;34.67
27729;BME280;15126;42.186;24.340;2022-08-19T08:26:38;98889.91;;;34.75;40.08
27729;BME280;15126;42.186;24.340;2022-08-19T08:29:06;98885.94;;;34.61;36.93
27729;BME280;15126;42.186;24.340;2022-08-19T08:31:39;98872.31;;;34.44;36.91
27729;BME280;15126;42.186;24.340;2022-08-19T08:34:06;98875.34;;;34.46;36.63
27729;BME280;15126;42.186;24.340;2022-08-19T08:36:36;98870.50;;;34.49;36.15
27729;BME280;15126;42.186;24.340;2022-08-19T08:39:06;98868.09;;;34.64;37.88
27729;BME280;15126;42.186;24.340;2022-08-19T08:41:37;98871.59;;;34.63;37.15
27729;BME280;15126;42.186;24.340;2022-08-19T08:44:13;98867.78;;;34.60;33.93
27729;BME280;15126;42.186;24.340;2022-08-19T08:46:45;98861.69;;;34.66;34.93
27729;BME280;15126;42.186;24.340;2022-08-19T08:49:28;98870.38;;;34.85;35.51
27729;BME280;15126;42.186;24.340;2022-08-19T08:52:00;98863.19;;;34.96;34.54
27729;BME280;15126;42.186;24.340;2022-08-19T08:54:34;98860.59;;;35.19;34.95
27729;BME280;15126;42.186;24.340;2022-08-19T08:57:04;98856.44;;;35.32;35.91
27729;BME280;15126;42.186;24.340;2022-08-19T08:59:36;98859.53;;;35.05;33.88
27729;BME280;15126;42.186;24.340;2022-08-19T09:02:03;98846.72;;;34.98;33.93
27729;BME280;15126;42.186;24.340;2022-08-19T09:04:30;98850.69;;;35.12;35.50
27729;BME280;15126;42.186;24.340;2022-08-19T09:07:10;98856.19;;;35.08;34.19
27729;BME280;15126;42.186;24.340;2022-08-19T09:09:42;98852.47;;;35.37;33.80
27729;BME280;15126;42.186;24.340;2022-08-19T09:12:14;98844.53;;;35.37;35.01
27729;BME280;15126;42.186;24.340;2022-08-19T09:14:47;98847.41;;;35.47;33.27
27729;BME280;15126;42.186;24.340;2022-08-19T09:17:14;98844.13;;;35.21;32.13
27729;BME280;15126;42.186;24.340;2022-08-19T09:19:55;98843.81;;;35.17;31.15
27729;BME280;15126;42.186;24.340;2022-08-19T09:22:23;98837.94;;;35.37;32.63
27729;BME280;15126;42.186;24.340;2022-08-19T09:24:53;98836.84;;;35.51;30.02
27729;BME280;15126;42.186;24.340;2022-08-19T09:27:20;98836.22;;;35.62;29.80
27729;BME280;15126;42.186;24.340;2022-08-19T09:29:51;98831.19;;;35.63;32.13
27729;BME280;15126;42.186;24.340;2022-08-19T09:32:19;98825.22;;;35.61;33.07
27729;BME280;15126;42.186;24.340;2022-08-19T09:34:46;98834.00;;;35.82;32.28
27729;BME280;15126;42.186;24.340;2022-08-19T09:37:13;98825.38;;;35.94;31.34
27729;BME280;15126;42.186;24.340;2022-08-19T09:39:40;98822.44;;;36.03;30.57
27729;BME280;15126;42.186;24.340;2022-08-19T09:42:08;98821.94;;;36.07;30.73
27729;BME280;15126;42.186;24.340;2022-08-19T09:44:37;98812.34;;;36.04;30.76
27729;BME280;15126;42.186;24.340;2022-08-19T09:47:07;98803.78;;;36.06;30.77
27729;BME280;15126;42.186;24.340;2022-08-19T09:49:34;98810.75;;;36.13;31.20
27729;BME280;15126;42.186;24.340;2022-08-19T09:52:01;98806.94;;;36.31;31.99
27729;BME280;15126;42.186;24.340;2022-08-19T09:54:28;98797.75;;;36.35;29.65
27729;BME280;15126;42.186;24.340;2022-08-19T09:56:55;98801.69;;;36.39;29.90
27729;BME280;15126;42.186;24.340;2022-08-19T09:59:25;98801.69;;;36.39;28.70
27729;BME280;15126;42.186;24.340;2022-08-19T10:01:52;98793.59;;;36.38;30.09
27729;BME280;15126;42.186;24.340;2022-08-19T10:04:21;98789.69;;;36.33;31.05
27729;BME280;15126;42.186;24.340;2022-08-19T10:07:08;98784.78;;;36.48;30.77
27729;BME280;15126;42.186;24.340;2022-08-19T10:09:35;98771.78;;;36.49;31.02
27729;BME280;15126;42.186;24.340;2022-08-19T10:12:03;98783.91;;;36.66;29.62
27729;BME280;15126;42.186;24.340;2022-08-19T10:14:31;98776.81;;;36.69;29.83
27729;BME280;15126;42.186;24.340;2022-08-19T10:16:58;98780.50;;;36.70;29.18
27729;BME280;15126;42.186;24.340;2022-08-19T10:19:27;98781.97;;;36.59;27.71
27729;BME280;15126;42.186;24.340;2022-08-19T10:21:57;98775.03;;;36.53;29.16
27729;BME280;15126;42.186;24.340;2022-08-19T10:24:24;98785.38;;;36.56;27.28
27729;BME280;15126;42.186;24.340;2022-08-19T10:26:52;98758.25;;;36.41;28.12
27729;BME280;15126;42.186;24.340;2022-08-19T10:29:19;98773.59;;;36.54;28.66
27729;BME280;15126;42.186;24.340;2022-08-19T10:31:46;98761.84;;;36.52;27.77
27729;BME280;15126;42.186;24.340;2022-08-19T10:34:13;98770.84;;;36.56;27.75
27729;BME280;15126;42.186;24.340;2022-08-19T10:36:42;98761.63;;;36.59;26.99
27729;BME280;15126;42.186;24.340;2022-08-19T10:39:09;98740.16;;;36.64;26.47
27729;BME280;15126;42.186;24.340;2022-08-19T10:41:39;98738.13;;;36.67;27.39
27729;BME280;15126;42.186;24.340;2022-08-19T10:44:11;98751.09;;;36.87;30.91
27729;BME280;15126;42.186;24.340;2022-08-19T10:46:40;98751.47;;;36.81;25.42
27729;BME280;15126;42.186;24.340;2022-08-19T10:49:09;98736.03;;;36.79;29.61
27729;BME280;15126;42.186;24.340;2022-08-19T10:51:37;98724.50;;;36.69;29.72
27729;BME280;15126;42.186;24.340;2022-08-19T10:54:24;98747.66;;;36.79;28.25
27729;BME280;15126;42.186;24.340;2022-08-19T10:57:11;98734.19;;;36.95;26.15
27729;BME280;15126;42.186;24.340;2022-08-19T10:59:37;98743.56;;;37.05;25.37
27729;BME280;15126;42.186;24.340;2022-08-19T11:02:06;98734.81;;;36.93;25.24
27729;BME280;15126;42.186;24.340;2022-08-19T11:04:35;98734.44;;;36.87;26.43
27729;BME280;15126;42.186;24.340;2022-08-19T11:07:02;98717.53;;;36.63;25.75
27729;BME280;15126;42.186;24.340;2022-08-19T11:09:31;98715.94;;;36.71;25.65
27729;BME280;15126;42.186;24.340;2022-08-19T11:12:03;98730.75;;;36.87;26.96
27729;BME280;15126;42.186;24.340;2022-08-19T11:14:30;98725.06;;;36.89;25.62
27729;BME280;15126;42.186;24.340;2022-08-19T11:16:58;98711.94;;;36.99;27.00
27729;BME280;15126;42.186;24.340;2022-08-19T11:19:25;98719.69;;;37.18;27.21
27729;BME280;15126;42.186;24.340;2022-08-19T11:21:53;98718.03;;;37.27;29.12
27729;BME280;15126;42.186;24.340;2022-08-19T11:24:22;98720.97;;;37.15;28.54
27729;BME280;15126;42.186;24.340;2022-08-19T11:26:54;98717.28;;;37.26;30.05
27729;BME280;15126;42.186;24.340;2022-08-19T11:29:24;98707.44;;;37.31;27.76
27729;BME280;15126;42.186;24.340;2022-08-19T11:31:53;98713.09;;;37.29;25.88
27729;BME280;15126;42.186;24.340;2022-08-19T11:34:24;98711.09;;;37.20;27.45
27729;BME280;15126;42.186;24.340;2022-08-19T11:36:52;98703.50;;;37.27;25.06
27729;BME280;15126;42.186;24.340;2022-08-19T11:39:22;98706.78;;;37.10;26.20
27729;BME280;15126;42.186;24.340;2022-08-19T11:41:50;98703.56;;;36.94;26.17
27729;BME280;15126;42.186;24.340;2022-08-19T11:44:17;98697.53;;;37.13;26.88
27729;BME280;15126;42.186;24.340;2022-08-19T11:46:45;98702.50;;;37.22;26.22
27729;BME280;15126;42.186;24.340;2022-08-19T11:49:13;98690.34;;;37.14;24.87
27729;BME280;15126;42.186;24.340;2022-08-19T11:51:41;98692.00;;;37.17;25.69
27729;BME280;15126;42.186;24.340;2022-08-19T11:54:08;98691.75;;;37.25;25.82
27729;BME280;15126;42.186;24.340;2022-08-19T11:56:37;98684.78;;;37.18;26.20
27729;BME280;15126;42.186;24.340;2022-08-19T11:59:05;98667.72;;;37.13;25.04
27729;BME280;15126;42.186;24.340;2022-08-19T12:01:33;98671.88;;;37.21;25.96
27729;BME280;15126;42.186;24.340;2022-08-19T12:04:00;98661.78;;;36.99;26.52
27729;BME280;15126;42.186;24.340;2022-08-19T12:06:31;98663.28;;;37.12;26.70
27729;BME280;15126;42.186;24.340;2022-08-19T12:09:03;98666.19;;;37.00;27.22
27729;BME280;15126;42.186;24.340;2022-08-19T12:11:30;98656.28;;;36.93;28.41
27729;BME280;15126;42.186;24.340;2022-08-19T12:13:57;98660.47;;;37.02;27.75
27729;BME280;15126;42.186;24.340;2022-08-19T12:16:28;98659.22;;;37.17;26.86
27729;BME280;15126;42.186;24.340;2022-08-19T12:18:56;98651.50;;;37.21;26.83
27729;BME280;15126;42.186;24.340;2022-08-19T12:21:28;98653.91;;;37.36;27.82
27729;BME280;15126;42.186;24.340;2022-08-19T12:23:56;98651.50;;;37.33;25.07
27729;BME280;15126;42.186;24.340;2022-08-19T12:26:25;98639.59;;;37.40;26.86
27729;BME280;15126;42.186;24.340;2022-08-19T12:28:52;98649.47;;;37.35;26.74
27729;BME280;15126;42.186;24.340;2022-08-19T12:31:19;98645.69;;;37.21;27.14
27729;BME280;15126;42.186;24.340;2022-08-19T12:33:47;98632.50;;;37.32;27.66
27729;BME280;15126;42.186;24.340;2022-08-19T12:36:15;98638.25;;;37.41;26.13
27729;BME280;15126;42.186;24.340;2022-08-19T12:38:43;98615.19;;;37.45;25.88
27729;BME280;15126;42.186;24.340;2022-08-19T12:41:13;98632.41;;;37.53;25.80
27729;BME280;15126;42.186;24.340;2022-08-19T12:43:41;98624.19;;;37.49;27.22
27729;BME280;15126;42.186;24.340;2022-08-19T12:46:08;98629.22;;;37.49;28.34
27729;BME280;15126;42.186;24.340;2022-08-19T12:48:35;98625.06;;;37.52;28.45
27729;BME280;15126;42.186;24.340;2022-08-19T12:51:08;98627.47;;;37.55;26.08
27729;BME280;15126;42.186;24.340;2022-08-19T12:53:36;98624.66;;;37.58;24.91
27729;BME280;15126;42.186;24.340;2022-08-19T12:56:03;98625.56;;;37.48;25.78
27729;BME280;15126;42.186;24.340;2022-08-19T12:58:30;98616.56;;;37.33;25.65
27729;BME280;15126;42.186;24.340;2022-08-19T13:01:00;98617.97;;;37.43;26.93